createdAt,value
2022-08-30T00:00:26.632Z,100.00
2022-08-30T00:02:54.569Z,100.00
2022-08-30T00:05:22.601Z,100.00
2022-08-30T00:07:50.979Z,100.00
2022-08-30T00:10:20.496Z,100.00
2022-08-30T00:12:48.944Z,100.00
2022-08-30T00:15:18.044Z,100.00
2022-08-30T00:17:46.119Z,100.00
2022-08-30T00:20:18.008Z,100.00
2022-08-30T00:22:46.496Z,100.00
2022-08-30T00:25:14.818Z,100.00
2022-08-30T00:27:45.278Z,100.00
2022-08-30T00:30:16.373Z,100.00
2022-08-30T00:32:44.566Z,100.00
2022-08-30T00:35:15.448Z,100.00
2022-08-30T00:37:44.492Z,100.00
2022-08-30T00:40:15.869Z,100.00
2022-08-30T00:42:50.666Z,100.00
2022-08-30T00:45:23.721Z,100.00
2022-08-30T00:47:52.666Z,100.00
2022-08-30T00:50:24.357Z,100.00
2022-08-30T00:52:55.370Z,100.00
2022-08-30T00:55:23.809Z,100.00
2022-08-30T00:57:57.468Z,100.00
2022-08-30T01:00:25.822Z,100.00
2022-08-30T01:02:53.821Z,100.00
2022-08-30T01:05:23.929Z,100.00
2022-08-30T01:07:51.983Z,100.00
2022-08-30T01:10:20.193Z,100.00
2022-08-30T01:12:50.495Z,100.00
2022-08-30T01:15:19.784Z,100.00
2022-08-30T01:17:49.253Z,100.00
2022-08-30T01:20:23.654Z,100.00
2022-08-30T01:23:05.368Z,100.00
2022-08-30T01:25:36.949Z,100.00
2022-08-30T01:28:09.532Z,100.00
2022-08-30T01:30:42.571Z,100.00
2022-08-30T01:33:12.456Z,100.00
2022-08-30T01:35:48.835Z,100.00
2022-08-30T01:38:21.029Z,100.00
2022-08-30T01:40:49.132Z,100.00
2022-08-30T01:43:18.704Z,100.00
2022-08-30T01:45:46.760Z,100.00
2022-08-30T01:48:14.766Z,100.00
2022-08-30T01:50:44.572Z,100.00
2022-08-30T01:53:13.386Z,100.00
2022-08-30T01:55:43.469Z,100.00
2022-08-30T01:58:11.791Z,100.00
2022-08-30T02:00:40.080Z,100.00
2022-08-30T02:03:08.745Z,100.00
2022-08-30T02:05:36.980Z,100.00
2022-08-30T02:08:05.200Z,100.00
2022-08-30T02:10:33.502Z,100.00
2022-08-30T02:13:03.094Z,100.00
2022-08-30T02:15:32.217Z,100.00
2022-08-30T02:18:10.755Z,100.00
2022-08-30T02:20:40.339Z,100.00
2022-08-30T02:23:08.382Z,100.00
2022-08-30T02:25:39.235Z,100.00
2022-08-30T02:28:09.281Z,100.00
2022-08-30T02:30:37.714Z,100.00
2022-08-30T02:33:05.696Z,100.00
2022-08-30T02:35:33.573Z,100.00
2022-08-30T02:38:01.531Z,100.00
2022-08-30T02:40:29.586Z,100.00
2022-08-30T02:42:58.526Z,100.00
2022-08-30T02:45:28.187Z,100.00
2022-08-30T02:47:56.835Z,100.00
2022-08-30T02:50:24.967Z,100.00
2022-08-30T02:52:54.290Z,100.00
2022-08-30T02:55:24.505Z,100.00
2022-08-30T02:57:52.420Z,100.00
2022-08-30T03:00:21.662Z,100.00
2022-08-30T03:02:50.901Z,100.00
2022-08-30T03:05:19.276Z,100.00
2022-08-30T03:07:48.320Z,100.00
2022-08-30T03:10:16.893Z,100.00
2022-08-30T03:12:45.218Z,100.00
2022-08-30T03:15:14.340Z,100.00
2022-08-30T03:17:42.721Z,100.00
2022-08-30T03:20:12.906Z,100.00
2022-08-30T03:22:41.142Z,100.00
2022-08-30T03:25:09.857Z,100.00
2022-08-30T03:27:37.779Z,100.00
2022-08-30T03:30:07.112Z,100.00
2022-08-30T03:32:35.337Z,100.00
2022-08-30T03:35:03.305Z,100.00
2022-08-30T03:37:32.521Z,100.00
2022-08-30T03:40:00.458Z,100.00
2022-08-30T03:42:28.496Z,100.00
2022-08-30T03:44:56.747Z,100.00
2022-08-30T03:47:24.681Z,100.00
2022-08-30T03:49:52.589Z,100.00
2022-08-30T03:52:20.523Z,100.00
2022-08-30T03:54:50.091Z,100.00
2022-08-30T03:57:19.992Z,100.00
2022-08-30T03:59:48.310Z,100.00
2022-08-30T04:02:16.317Z,100.00
2022-08-30T04:04:44.388Z,100.00
2022-08-30T04:07:12.725Z,100.00
2022-08-30T04:09:41.797Z,100.00
2022-08-30T04:12:11.116Z,100.00
2022-08-30T04:14:39.028Z,100.00
2022-08-30T04:17:06.961Z,100.00
2022-08-30T04:19:34.869Z,100.00
2022-08-30T04:22:03.022Z,100.00
2022-08-30T04:24:30.954Z,100.00
2022-08-30T04:26:58.828Z,100.00
2022-08-30T04:29:28.225Z,100.00
2022-08-30T04:31:56.225Z,100.00
2022-08-30T04:34:24.188Z,100.00
2022-08-30T04:36:52.156Z,100.00
2022-08-30T04:39:20.615Z,100.00
2022-08-30T04:41:48.597Z,100.00
2022-08-30T04:44:19.172Z,100.00
2022-08-30T04:46:49.041Z,100.00
2022-08-30T04:49:16.967Z,100.00
2022-08-30T04:51:44.898Z,100.00
2022-08-30T04:54:13.258Z,100.00
2022-08-30T04:56:41.238Z,100.00
2022-08-30T04:59:09.155Z,100.00
2022-08-30T05:01:44.840Z,100.00
2022-08-30T05:04:15.269Z,100.00
2022-08-30T05:06:43.887Z,100.00
2022-08-30T05:09:11.835Z,100.00
2022-08-30T05:11:39.966Z,100.00
2022-08-30T05:14:07.971Z,100.00
2022-08-30T05:16:38.949Z,100.00
2022-08-30T05:19:07.991Z,100.00
2022-08-30T05:21:40.544Z,100.00
2022-08-30T05:24:11.705Z,100.00
2022-08-30T05:26:40.896Z,100.00
2022-08-30T05:29:08.793Z,100.00
2022-08-30T05:31:37.719Z,100.00
2022-08-30T05:34:06.487Z,100.00
2022-08-30T05:36:38.346Z,100.00
2022-08-30T05:39:07.261Z,100.00
2022-08-30T05:41:37.566Z,100.00
2022-08-30T05:44:07.480Z,100.00
2022-08-30T05:46:36.522Z,100.00
2022-08-30T05:49:06.796Z,100.00
2022-08-30T05:51:42.909Z,100.00
2022-08-30T05:54:14.100Z,100.00
2022-08-30T05:56:44.422Z,100.00
2022-08-30T05:59:14.067Z,100.00
2022-08-30T06:01:44.708Z,100.00
2022-08-30T06:04:13.959Z,100.00
2022-08-30T06:06:45.040Z,100.00
2022-08-30T06:09:14.572Z,100.00
2022-08-30T06:11:43.057Z,100.00
2022-08-30T06:14:10.991Z,100.00
2022-08-30T06:16:40.266Z,100.00
2022-08-30T06:19:11.096Z,100.00
2022-08-30T06:21:40.500Z,100.00
2022-08-30T06:24:11.902Z,100.00
2022-08-30T06:26:42.439Z,100.00
2022-08-30T06:29:12.165Z,100.00
2022-08-30T06:31:40.358Z,100.00
2022-08-30T06:34:11.271Z,100.00
2022-08-30T06:36:42.296Z,100.00
2022-08-30T06:39:11.720Z,100.00
2022-08-30T06:41:41.821Z,100.00
2022-08-30T06:44:27.888Z,100.00
2022-08-30T06:46:58.323Z,100.00
2022-08-30T06:49:26.436Z,100.00
2022-08-30T06:51:54.996Z,100.00
2022-08-30T06:54:24.402Z,100.00
2022-08-30T06:56:58.584Z,100.00
2022-08-30T06:59:27.832Z,100.00
2022-08-30T07:01:56.310Z,100.00
2022-08-30T07:04:24.585Z,100.00
2022-08-30T07:06:52.619Z,100.00
2022-08-30T07:09:23.014Z,100.00
2022-08-30T07:11:55.753Z,100.00
2022-08-30T07:14:24.310Z,100.00
2022-08-30T07:16:52.378Z,100.00
2022-08-30T07:19:21.140Z,100.00
2022-08-30T07:21:50.411Z,100.00
2022-08-30T07:24:18.980Z,100.00
2022-08-30T07:26:51.744Z,100.00
2022-08-30T07:29:21.864Z,100.00
2022-08-30T07:31:49.919Z,100.00
2022-08-30T07:34:19.297Z,100.00
2022-08-30T07:36:48.587Z,100.00
2022-08-30T07:39:16.543Z,100.00
2022-08-30T07:41:44.445Z,100.00
2022-08-30T07:44:12.800Z,100.00
2022-08-30T07:46:42.335Z,100.00
2022-08-30T07:49:11.774Z,100.00
2022-08-30T07:51:40.780Z,100.00
2022-08-30T07:54:09.065Z,100.00
2022-08-30T07:56:37.013Z,100.00
2022-08-30T07:59:05.017Z,100.00
2022-08-30T08:01:33.163Z,100.00
2022-08-30T08:04:02.656Z,100.00
2022-08-30T08:06:34.675Z,100.00
2022-08-30T08:09:03.271Z,100.00
2022-08-30T08:11:33.831Z,100.00
2022-08-30T08:14:02.993Z,100.00
2022-08-30T08:16:33.244Z,100.00
2022-08-30T08:19:02.746Z,100.00
2022-08-30T08:21:30.716Z,100.00
2022-08-30T08:23:58.886Z,100.00
2022-08-30T08:26:27.058Z,100.00
2022-08-30T08:28:55.734Z,100.00
2022-08-30T08:31:28.761Z,100.00
2022-08-30T08:34:05.592Z,100.00
2022-08-30T08:36:34.484Z,100.00
2022-08-30T08:39:03.652Z,100.00
2022-08-30T08:41:40.516Z,100.00
2022-08-30T08:44:14.510Z,100.00
2022-08-30T08:46:50.345Z,100.00
2022-08-30T08:49:19.809Z,100.00
2022-08-30T08:52:05.033Z,100.00
2022-08-30T08:54:37.706Z,100.00
2022-08-30T08:57:05.723Z,100.00
2022-08-30T08:59:33.719Z,100.00
2022-08-30T09:02:19.774Z,100.00
2022-08-30T09:04:49.530Z,100.00
2022-08-30T09:07:23.740Z,100.00
2022-08-30T09:09:52.044Z,100.00
2022-08-30T09:12:21.005Z,100.00
2022-08-30T09:14:55.437Z,100.00
2022-08-30T09:17:24.586Z,100.00
2022-08-30T09:20:01.134Z,100.00
2022-08-30T09:22:35.020Z,100.00
2022-08-30T09:25:07.535Z,100.00
2022-08-30T09:27:37.619Z,100.00
2022-08-30T09:30:14.761Z,100.00
2022-08-30T09:32:44.712Z,100.00
2022-08-30T09:35:21.109Z,100.00
2022-08-30T09:37:55.050Z,100.00
2022-08-30T09:40:28.553Z,100.00
2022-08-30T09:43:03.411Z,100.00
2022-08-30T09:45:36.086Z,100.00
2022-08-30T09:51:43.384Z,100.00
2022-08-30T09:54:20.426Z,100.00
2022-08-30T09:57:04.803Z,100.00
2022-08-30T09:59:48.286Z,100.00
2022-08-30T10:02:40.418Z,100.00
2022-08-30T10:05:16.858Z,100.00
2022-08-30T10:07:56.943Z,100.00
2022-08-30T10:10:34.740Z,100.00
2022-08-30T10:13:16.260Z,100.00
2022-08-30T10:15:52.914Z,100.00
2022-08-30T10:18:28.071Z,100.00
2022-08-30T10:21:08.176Z,100.00
2022-08-30T10:23:42.322Z,100.00
2022-08-30T10:26:19.410Z,100.00
2022-08-30T10:28:52.426Z,100.00
2022-08-30T10:31:30.122Z,100.00
2022-08-30T10:34:03.976Z,100.00
2022-08-30T10:36:39.867Z,100.00
2022-08-30T10:39:15.174Z,100.00
2022-08-30T10:41:48.197Z,100.00
2022-08-30T10:44:24.064Z,100.00
2022-08-30T10:47:03.556Z,100.00
2022-08-30T10:49:36.369Z,100.00
2022-08-30T10:52:21.176Z,100.00
2022-08-30T10:54:55.410Z,100.00
2022-08-30T10:57:23.326Z,100.00
2022-08-30T10:59:55.624Z,100.00
2022-08-30T11:03:01.345Z,100.00
2022-08-30T11:05:59.424Z,100.00
2022-08-30T11:08:51.464Z,94.66
2022-08-30T11:11:31.262Z,100.00
2022-08-30T11:14:05.590Z,100.00
2022-08-30T11:16:39.423Z,100.00
2022-08-30T11:19:18.974Z,100.00
2022-08-30T11:21:50.862Z,100.00
2022-08-30T11:24:21.816Z,100.00
2022-08-30T11:27:02.925Z,100.00
2022-08-30T11:29:40.593Z,100.00
2022-08-30T11:32:59.556Z,100.00
2022-08-30T11:35:47.335Z,100.00
2022-08-30T11:38:40.902Z,95.61
2022-08-30T11:41:11.025Z,100.00
2022-08-30T11:43:56.179Z,100.00
2022-08-30T11:46:40.171Z,100.00
2022-08-30T11:49:37.488Z,100.00
2022-08-30T11:52:31.278Z,100.00
2022-08-30T11:55:15.455Z,100.00
2022-08-30T11:57:50.589Z,100.00
2022-08-30T12:00:34.692Z,100.00
2022-08-30T12:03:06.257Z,100.00
2022-08-30T12:05:57.392Z,100.00
2022-08-30T12:08:59.517Z,100.00
2022-08-30T12:11:59.554Z,100.00
2022-08-30T12:14:41.954Z,94.05
2022-08-30T12:17:50.983Z,98.78
2022-08-30T12:20:24.414Z,93.96
2022-08-30T12:22:53.655Z,92.35
2022-08-30T12:25:27.552Z,89.29
2022-08-30T12:28:10.704Z,91.58
2022-08-30T12:30:40.198Z,100.00
2022-08-30T12:33:12.137Z,100.00
2022-08-30T12:35:41.760Z,99.12
2022-08-30T12:38:18.272Z,100.00
2022-08-30T12:40:52.079Z,97.67
2022-08-30T12:43:27.025Z,96.12
2022-08-30T12:46:12.219Z,96.81
2022-08-30T12:48:42.486Z,97.02
2022-08-30T12:51:28.349Z,97.36
2022-08-30T12:54:04.989Z,97.74
2022-08-30T12:56:51.776Z,100.00
2022-08-30T12:59:59.585Z,99.51
2022-08-30T13:02:42.969Z,98.71
2022-08-30T13:05:34.743Z,93.58
2022-08-30T13:08:11.660Z,91.85
2022-08-30T13:10:51.255Z,81.57
2022-08-30T13:13:30.265Z,80.11
2022-08-30T13:15:58.578Z,87.89
2022-08-30T13:18:31.099Z,92.41
2022-08-30T13:21:29.171Z,85.88
2022-08-30T13:23:59.861Z,76.77
2022-08-30T13:26:33.275Z,81.53
2022-08-30T13:29:03.493Z,80.49
2022-08-30T13:31:32.026Z,83.16
2022-08-30T13:34:02.359Z,92.83
2022-08-30T13:36:35.390Z,94.60
2022-08-30T13:39:03.904Z,97.89
2022-08-30T13:41:33.934Z,99.18
2022-08-30T13:44:13.171Z,88.13
2022-08-30T13:46:48.618Z,94.46
2022-08-30T13:52:21.349Z,89.47
2022-08-30T13:54:50.538Z,94.92
2022-08-30T14:00:14.514Z,98.69
2022-08-30T14:02:47.780Z,99.02
2022-08-30T14:05:46.665Z,99.07
2022-08-30T14:08:44.307Z,96.20
2022-08-30T14:10:58.991Z,93.29
2022-08-30T14:13:29.213Z,93.45
2022-08-30T14:18:46.500Z,85.99
2022-08-30T14:21:14.518Z,84.27
2022-08-30T14:23:43.900Z,93.48
2022-08-30T14:26:17.259Z,86.12
2022-08-30T14:28:45.881Z,87.45
2022-08-30T14:31:20.423Z,85.76
2022-08-30T14:33:48.541Z,78.89
2022-08-30T14:36:17.443Z,88.42
2022-08-30T14:38:47.174Z,90.36
2022-08-30T14:41:16.596Z,87.62
2022-08-30T14:43:44.648Z,95.93
2022-08-30T14:46:12.666Z,91.43
2022-08-30T14:48:41.651Z,89.63
2022-08-30T14:51:15.108Z,80.45
2022-08-30T14:53:43.103Z,83.18
2022-08-30T14:56:14.828Z,80.58
2022-08-30T14:58:42.927Z,84.62
2022-08-30T15:01:12.728Z,75.99
2022-08-30T15:03:42.867Z,76.83
2022-08-30T15:06:12.652Z,80.38
2022-08-30T15:08:41.074Z,74.28
2022-08-30T15:11:10.289Z,72.78
2022-08-30T15:13:42.457Z,82.74
2022-08-30T15:16:12.774Z,82.28
2022-08-30T15:18:41.799Z,81.45
2022-08-30T15:21:10.660Z,84.18
2022-08-30T15:23:39.289Z,77.51
2022-08-30T15:26:08.098Z,70.03
2022-08-30T15:28:37.332Z,73.38
2022-08-30T15:31:09.338Z,72.79
2022-08-30T15:33:37.646Z,74.09
2022-08-30T15:36:06.452Z,73.26
2022-08-30T15:38:34.602Z,72.35
2022-08-30T15:41:05.035Z,75.66
2022-08-30T15:43:33.859Z,77.54
2022-08-30T15:46:19.592Z,70.67
2022-08-30T15:48:47.915Z,65.64
2022-08-30T15:51:16.735Z,67.44
2022-08-30T15:53:44.846Z,72.21
2022-08-30T15:56:13.511Z,70.57
2022-08-30T15:58:42.214Z,68.87
2022-08-30T16:01:10.990Z,70.60
2022-08-30T16:03:41.627Z,76.94
2022-08-30T16:06:15.030Z,81.29
2022-08-30T16:08:46.353Z,82.40
2022-08-30T16:11:16.803Z,81.32
2022-08-30T16:13:49.522Z,82.47
2022-08-30T16:16:20.670Z,91.66
2022-08-30T16:18:53.680Z,92.01
2022-08-30T16:21:27.654Z,93.05
2022-08-30T16:23:58.243Z,90.35
2022-08-30T16:26:27.549Z,89.09
2022-08-30T16:28:56.383Z,77.59
2022-08-30T16:31:26.098Z,79.43
2022-08-30T16:34:02.204Z,78.54
2022-08-30T16:36:33.151Z,78.85
2022-08-30T16:39:01.519Z,83.81
2022-08-30T16:41:32.301Z,87.65
2022-08-30T16:44:01.376Z,92.08
2022-08-30T16:46:29.906Z,91.65
2022-08-30T16:49:01.431Z,91.97
2022-08-30T16:51:31.730Z,93.17
2022-08-30T16:54:01.877Z,96.44
2022-08-30T16:56:31.648Z,96.02
2022-08-30T16:59:02.808Z,97.21
2022-08-30T17:01:34.993Z,100.00
2022-08-30T17:04:06.516Z,100.00
2022-08-30T17:06:35.694Z,100.00
2022-08-30T17:09:04.917Z,100.00
2022-08-30T17:11:33.069Z,100.00
2022-08-30T17:14:01.632Z,100.00
2022-08-30T17:16:30.033Z,100.00
2022-08-30T17:18:59.757Z,100.00
2022-08-30T17:21:33.723Z,100.00
2022-08-30T17:24:02.872Z,100.00
2022-08-30T17:26:32.358Z,100.00
2022-08-30T17:29:02.700Z,100.00
2022-08-30T17:31:31.480Z,100.00
2022-08-30T17:34:03.474Z,100.00
2022-08-30T17:36:35.285Z,100.00
2022-08-30T17:39:10.446Z,100.00
2022-08-30T17:41:52.621Z,100.00
2022-08-30T17:44:25.724Z,100.00
2022-08-30T17:46:54.280Z,100.00
2022-08-30T17:49:22.723Z,100.00
2022-08-30T17:51:56.412Z,100.00
2022-08-30T17:54:26.004Z,100.00
2022-08-30T17:56:54.996Z,100.00
2022-08-30T17:59:25.098Z,100.00
2022-08-30T18:01:55.145Z,100.00
2022-08-30T18:04:24.680Z,100.00
2022-08-30T18:06:55.220Z,100.00
2022-08-30T18:09:23.675Z,100.00
2022-08-30T18:11:51.708Z,100.00
2022-08-30T18:14:24.642Z,100.00
2022-08-30T18:16:54.839Z,100.00
2022-08-30T18:19:23.984Z,100.00
2022-08-30T18:21:59.341Z,100.00
2022-08-30T18:24:31.719Z,100.00
2022-08-30T18:26:59.639Z,100.00
2022-08-30T18:29:30.189Z,100.00
2022-08-30T18:32:00.142Z,100.00
2022-08-30T18:34:28.326Z,100.00
2022-08-30T18:36:56.751Z,100.00
2022-08-30T18:39:26.509Z,100.00
2022-08-30T18:41:55.786Z,100.00
2022-08-30T18:44:28.842Z,100.00
2022-08-30T18:47:00.320Z,100.00
2022-08-30T18:49:28.807Z,100.00
2022-08-30T18:51:56.836Z,100.00
2022-08-30T18:54:26.134Z,100.00
2022-08-30T18:56:54.023Z,100.00
2022-08-30T18:59:22.837Z,100.00
2022-08-30T19:02:03.294Z,100.00
2022-08-30T19:04:35.577Z,100.00
2022-08-30T19:07:08.404Z,100.00
2022-08-30T19:09:39.661Z,100.00
2022-08-30T19:12:09.754Z,100.00
2022-08-30T19:14:39.476Z,100.00
2022-08-30T19:17:08.065Z,100.00
2022-08-30T19:19:46.212Z,100.00
2022-08-30T19:22:19.103Z,100.00
2022-08-30T19:24:49.854Z,100.00
2022-08-30T19:27:21.603Z,100.00
2022-08-30T19:30:06.770Z,100.00
2022-08-30T19:32:35.406Z,100.00
2022-08-30T19:35:03.247Z,100.00
2022-08-30T19:37:31.180Z,100.00
2022-08-30T19:40:04.949Z,100.00
2022-08-30T19:42:32.872Z,100.00
2022-08-30T19:45:00.862Z,100.00
2022-08-30T19:47:28.918Z,100.00
2022-08-30T19:49:57.341Z,100.00
2022-08-30T19:52:30.301Z,100.00
2022-08-30T19:54:58.865Z,100.00
2022-08-30T19:57:28.267Z,100.00
2022-08-30T19:59:57.752Z,100.00
2022-08-30T20:02:26.022Z,100.00
2022-08-30T20:04:55.669Z,100.00
2022-08-30T20:07:27.590Z,100.00
2022-08-30T20:09:56.410Z,100.00
2022-08-30T20:12:24.837Z,100.00
2022-08-30T20:14:54.095Z,100.00
2022-08-30T20:17:34.167Z,100.00
2022-08-30T20:20:16.769Z,100.00
2022-08-30T20:22:50.889Z,100.00
2022-08-30T20:25:22.715Z,100.00
2022-08-30T20:27:50.665Z,100.00
2022-08-30T20:30:20.380Z,100.00
2022-08-30T20:32:48.313Z,100.00
2022-08-30T20:35:18.087Z,100.00
2022-08-30T20:37:46.642Z,100.00
2022-08-30T20:40:16.253Z,100.00
2022-08-30T20:42:45.760Z,100.00
2022-08-30T20:45:15.578Z,100.00
2022-08-30T20:47:45.134Z,100.00
2022-08-30T20:50:16.324Z,100.00
2022-08-30T20:52:44.426Z,100.00
2022-08-30T20:55:14.155Z,100.00
2022-08-30T20:57:42.119Z,100.00
2022-08-30T21:00:13.679Z,100.00
2022-08-30T21:02:46.950Z,100.00
2022-08-30T21:05:19.547Z,100.00
2022-08-30T21:07:47.742Z,100.00
2022-08-30T21:10:21.174Z,100.00
2022-08-30T21:12:51.361Z,100.00
2022-08-30T21:15:37.829Z,100.00
2022-08-30T21:18:06.288Z,100.00
2022-08-30T21:20:36.048Z,100.00
2022-08-30T21:23:04.077Z,100.00
2022-08-30T21:25:33.993Z,100.00
2022-08-30T21:28:01.909Z,100.00
2022-08-30T21:30:29.886Z,100.00
2022-08-30T21:33:00.120Z,100.00
2022-08-30T21:35:48.536Z,100.00
2022-08-30T21:38:19.115Z,100.00
2022-08-30T21:40:48.438Z,100.00
2022-08-30T21:43:16.767Z,100.00
2022-08-30T21:45:45.953Z,100.00
2022-08-30T21:48:15.511Z,100.00
2022-08-30T21:50:45.735Z,100.00
2022-08-30T21:53:15.391Z,100.00
2022-08-30T21:55:48.179Z,100.00
2022-08-30T21:58:19.000Z,100.00
2022-08-30T22:00:46.959Z,100.00
2022-08-30T22:03:14.950Z,100.00
2022-08-30T22:05:45.979Z,100.00
2022-08-30T22:08:13.941Z,100.00
2022-08-30T22:10:41.831Z,100.00
2022-08-30T22:13:13.143Z,100.00
2022-08-30T22:15:41.567Z,100.00
2022-08-30T22:18:09.409Z,100.00
2022-08-30T22:20:37.522Z,100.00
2022-08-30T22:23:06.256Z,100.00
2022-08-30T22:25:34.140Z,100.00
2022-08-30T22:28:02.036Z,100.00
2022-08-30T22:30:33.691Z,100.00
2022-08-30T22:33:01.951Z,100.00
2022-08-30T22:35:30.048Z,100.00
2022-08-30T22:37:57.984Z,100.00
2022-08-30T22:40:25.913Z,100.00
2022-08-30T22:42:53.851Z,100.00
2022-08-30T22:45:21.721Z,100.00
2022-08-30T22:47:50.962Z,100.00
2022-08-30T22:50:18.907Z,100.00
2022-08-30T22:52:46.936Z,100.00
2022-08-30T22:55:15.055Z,100.00
2022-08-30T22:57:43.387Z,100.00
2022-08-30T23:00:15.183Z,100.00
2022-08-30T23:02:43.995Z,100.00
2022-08-30T23:05:14.328Z,100.00
2022-08-30T23:07:42.669Z,100.00
2022-08-30T23:10:12.270Z,100.00
2022-08-30T23:12:41.013Z,100.00
2022-08-30T23:15:12.360Z,100.00
2022-08-30T23:17:40.243Z,100.00
2022-08-30T23:20:09.298Z,100.00
2022-08-30T23:22:38.709Z,100.00
2022-08-30T23:25:25.472Z,100.00
2022-08-30T23:28:11.817Z,100.00
2022-08-30T23:31:03.083Z,100.00
2022-08-30T23:33:48.384Z,100.00
2022-08-30T23:36:34.274Z,100.00
2022-08-30T23:39:21.776Z,100.00
2022-08-30T23:42:07.276Z,100.00
2022-08-30T23:44:52.833Z,100.00
2022-08-30T23:47:37.973Z,100.00
2022-08-30T23:50:24.082Z,100.00
2022-08-30T23:53:09.893Z,100.00
2022-08-30T23:55:58.594Z,100.00
2022-08-30T23:58:44.116Z,100.00
